Renovo, Pennsylvania
Current Conditions -  °F | °C
As of 4:35 PM on Thursday 18 Dec 2014 (Local Time) from KN38 Reporting Station
Overcast Overcast  
Wind Chill: 22°   Ceiling: 1300
Heat Index: 28°   Visibility: 7mi
Dew Point: 25°   Wind: 6mph
Humidity: 86%   Direction: NA
Pressure: 30.01"   Gusts: 13mph
Location:  41.33°N, 77.75°W
Report Text: KN38 182135Z AUTO VRB05G11KT 7SM OVC013 M02/M04 A3001 RMK AO2
Loading
Personal Weather Stations






























Interactive Weather Map New forecast layout! Learn more

10-Day Weather Forecast

Advertisements
Track Severe Weather on mobile